sensor_id;sensor_type;location;lat;lon;timestamp;P1;durP1;ratioP1;P2;durP2;ratioP2
27199;SDS011;14714;48.106;11.546;2022-12-10T00:02:26;47.90;;;22.70;;
27199;SDS011;14714;48.106;11.546;2022-12-10T00:04:53;46.90;;;22.30;;
27199;SDS011;14714;48.106;11.546;2022-12-10T00:07:19;50.55;;;23.88;;
27199;SDS011;14714;48.106;11.546;2022-12-10T00:09:46;45.78;;;23.35;;
27199;SDS011;14714;48.106;11.546;2022-12-10T00:12:13;43.95;;;23.42;;
27199;SDS011;14714;48.106;11.546;2022-12-10T00:14:39;44.92;;;22.98;;
27199;SDS011;14714;48.106;11.546;2022-12-10T00:17:06;47.15;;;23.45;;
27199;SDS011;14714;48.106;11.546;2022-12-10T00:19:38;43.72;;;23.55;;
27199;SDS011;14714;48.106;11.546;2022-12-10T00:22:04;42.53;;;22.95;;
27199;SDS011;14714;48.106;11.546;2022-12-10T00:24:31;53.80;;;26.45;;
27199;SDS011;14714;48.106;11.546;2022-12-10T00:26:58;50.67;;;25.05;;
27199;SDS011;14714;48.106;11.546;2022-12-10T00:29:25;50.25;;;25.60;;
27199;SDS011;14714;48.106;11.546;2022-12-10T00:31:52;52.70;;;25.40;;
27199;SDS011;14714;48.106;11.546;2022-12-10T00:34:18;56.10;;;25.73;;
27199;SDS011;14714;48.106;11.546;2022-12-10T00:36:46;53.42;;;26.33;;
27199;SDS011;14714;48.106;11.546;2022-12-10T00:39:16;60.42;;;27.92;;
27199;SDS011;14714;48.106;11.546;2022-12-10T00:44:11;61.15;;;27.27;;
27199;SDS011;14714;48.106;11.546;2022-12-10T00:46:38;64.03;;;29.35;;
27199;SDS011;14714;48.106;11.546;2022-12-10T00:49:06;61.33;;;27.80;;
27199;SDS011;14714;48.106;11.546;2022-12-10T00:51:32;64.47;;;28.45;;
27199;SDS011;14714;48.106;11.546;2022-12-10T00:53:59;60.40;;;28.65;;
27199;SDS011;14714;48.106;11.546;2022-12-10T00:56:27;60.50;;;27.73;;
27199;SDS011;14714;48.106;11.546;2022-12-10T01:01:34;66.40;;;27.05;;
27199;SDS011;14714;48.106;11.546;2022-12-10T01:04:07;58.00;;;26.63;;
27199;SDS011;14714;48.106;11.546;2022-12-10T01:06:49;59.03;;;27.13;;
27199;SDS011;14714;48.106;11.546;2022-12-10T01:09:21;58.95;;;27.02;;
27199;SDS011;14714;48.106;11.546;2022-12-10T01:11:49;64.70;;;28.17;;
27199;SDS011;14714;48.106;11.546;2022-12-10T01:14:18;59.90;;;27.30;;
27199;SDS011;14714;48.106;11.546;2022-12-10T01:16:50;63.30;;;27.25;;
27199;SDS011;14714;48.106;11.546;2022-12-10T01:19:20;58.67;;;26.40;;
27199;SDS011;14714;48.106;11.546;2022-12-10T01:21:53;58.97;;;25.67;;
27199;SDS011;14714;48.106;11.546;2022-12-10T01:24:21;55.15;;;26.33;;
27199;SDS011;14714;48.106;11.546;2022-12-10T01:26:48;60.38;;;26.70;;
27199;SDS011;14714;48.106;11.546;2022-12-10T01:29:16;60.60;;;26.92;;
27199;SDS011;14714;48.106;11.546;2022-12-10T01:31:43;61.70;;;25.77;;
27199;SDS011;14714;48.106;11.546;2022-12-10T01:34:11;59.33;;;26.98;;
27199;SDS011;14714;48.106;11.546;2022-12-10T01:36:41;57.00;;;26.85;;
27199;SDS011;14714;48.106;11.546;2022-12-10T01:39:10;54.47;;;25.25;;
27199;SDS011;14714;48.106;11.546;2022-12-10T01:46:39;52.78;;;25.00;;
27199;SDS011;14714;48.106;11.546;2022-12-10T01:49:09;53.50;;;25.23;;
27199;SDS011;14714;48.106;11.546;2022-12-10T01:51:42;57.58;;;26.00;;
27199;SDS011;14714;48.106;11.546;2022-12-10T01:54:11;55.97;;;26.00;;
27199;SDS011;14714;48.106;11.546;2022-12-10T01:56:41;53.70;;;25.80;;
27199;SDS011;14714;48.106;11.546;2022-12-10T01:59:11;59.85;;;27.60;;
27199;SDS011;14714;48.106;11.546;2022-12-10T02:12:14;56.83;;;25.58;;
27199;SDS011;14714;48.106;11.546;2022-12-10T02:20:08;52.38;;;26.20;;
27199;SDS011;14714;48.106;11.546;2022-12-10T02:22:38;59.57;;;26.67;;
27199;SDS011;14714;48.106;11.546;2022-12-10T02:25:12;53.63;;;24.20;;
27199;SDS011;14714;48.106;11.546;2022-12-10T02:30:43;57.08;;;24.83;;
27199;SDS011;14714;48.106;11.546;2022-12-10T02:33:12;49.35;;;23.73;;
27199;SDS011;14714;48.106;11.546;2022-12-10T02:38:13;52.67;;;23.35;;
27199;SDS011;14714;48.106;11.546;2022-12-10T02:40:50;49.33;;;23.10;;
27199;SDS011;14714;48.106;11.546;2022-12-10T02:43:21;55.10;;;24.38;;
27199;SDS011;14714;48.106;11.546;2022-12-10T02:45:49;54.65;;;24.92;;
27199;SDS011;14714;48.106;11.546;2022-12-10T02:48:17;51.53;;;24.85;;
27199;SDS011;14714;48.106;11.546;2022-12-10T02:50:44;52.95;;;25.15;;
27199;SDS011;14714;48.106;11.546;2022-12-10T02:53:11;52.72;;;24.60;;
27199;SDS011;14714;48.106;11.546;2022-12-10T02:55:46;51.75;;;23.92;;
27199;SDS011;14714;48.106;11.546;2022-12-10T02:58:32;51.05;;;24.27;;
27199;SDS011;14714;48.106;11.546;2022-12-10T03:02:02;51.13;;;24.48;;
27199;SDS011;14714;48.106;11.546;2022-12-10T03:04:23;53.45;;;24.88;;
27199;SDS011;14714;48.106;11.546;2022-12-10T03:06:52;55.90;;;25.65;;
27199;SDS011;14714;48.106;11.546;2022-12-10T03:09:26;52.28;;;25.30;;
27199;SDS011;14714;48.106;11.546;2022-12-10T03:12:06;47.15;;;23.55;;
27199;SDS011;14714;48.106;11.546;2022-12-10T03:14:40;48.63;;;23.48;;
27199;SDS011;14714;48.106;11.546;2022-12-10T03:17:08;51.70;;;25.75;;
27199;SDS011;14714;48.106;11.546;2022-12-10T03:19:36;46.95;;;23.73;;
27199;SDS011;14714;48.106;11.546;2022-12-10T03:22:10;50.80;;;23.88;;
27199;SDS011;14714;48.106;11.546;2022-12-10T03:24:39;46.15;;;23.17;;
27199;SDS011;14714;48.106;11.546;2022-12-10T03:27:09;49.93;;;24.43;;
27199;SDS011;14714;48.106;11.546;2022-12-10T03:29:43;47.40;;;23.80;;
27199;SDS011;14714;48.106;11.546;2022-12-10T03:32:13;48.97;;;23.45;;
27199;SDS011;14714;48.106;11.546;2022-12-10T03:34:42;50.72;;;23.88;;
27199;SDS011;14714;48.106;11.546;2022-12-10T03:37:10;48.88;;;24.02;;
27199;SDS011;14714;48.106;11.546;2022-12-10T03:39:39;47.10;;;23.58;;
27199;SDS011;14714;48.106;11.546;2022-12-10T03:42:07;41.90;;;21.08;;
27199;SDS011;14714;48.106;11.546;2022-12-10T03:44:35;46.03;;;22.92;;
27199;SDS011;14714;48.106;11.546;2022-12-10T03:47:04;48.60;;;23.15;;
27199;SDS011;14714;48.106;11.546;2022-12-10T03:49:32;43.35;;;23.00;;
27199;SDS011;14714;48.106;11.546;2022-12-10T03:51:59;47.60;;;22.95;;
27199;SDS011;14714;48.106;11.546;2022-12-10T03:54:25;43.10;;;21.60;;
27199;SDS011;14714;48.106;11.546;2022-12-10T03:56:52;48.00;;;22.65;;
27199;SDS011;14714;48.106;11.546;2022-12-10T03:59:19;43.65;;;22.75;;
27199;SDS011;14714;48.106;11.546;2022-12-10T04:01:46;41.65;;;21.75;;
27199;SDS011;14714;48.106;11.546;2022-12-10T04:04:13;44.83;;;22.45;;
27199;SDS011;14714;48.106;11.546;2022-12-10T04:06:41;43.35;;;22.27;;
27199;SDS011;14714;48.106;11.546;2022-12-10T04:09:12;42.38;;;21.13;;
27199;SDS011;14714;48.106;11.546;2022-12-10T04:11:40;45.25;;;21.85;;
27199;SDS011;14714;48.106;11.546;2022-12-10T04:14:08;44.30;;;21.95;;
27199;SDS011;14714;48.106;11.546;2022-12-10T04:16:54;43.55;;;21.63;;
27199;SDS011;14714;48.106;11.546;2022-12-10T04:19:21;40.25;;;21.45;;
27199;SDS011;14714;48.106;11.546;2022-12-10T04:21:49;39.67;;;20.50;;
27199;SDS011;14714;48.106;11.546;2022-12-10T04:24:35;38.40;;;19.65;;
27199;SDS011;14714;48.106;11.546;2022-12-10T04:27:23;36.90;;;19.73;;
27199;SDS011;14714;48.106;11.546;2022-12-10T04:29:50;43.50;;;21.60;;
27199;SDS011;14714;48.106;11.546;2022-12-10T04:32:17;42.05;;;21.05;;
27199;SDS011;14714;48.106;11.546;2022-12-10T04:34:45;39.03;;;19.77;;
27199;SDS011;14714;48.106;11.546;2022-12-10T04:37:12;39.72;;;19.98;;
27199;SDS011;14714;48.106;11.546;2022-12-10T04:39:39;38.33;;;20.00;;
27199;SDS011;14714;48.106;11.546;2022-12-10T04:42:06;39.08;;;20.23;;
27199;SDS011;14714;48.106;11.546;2022-12-10T04:44:33;41.80;;;20.58;;
27199;SDS011;14714;48.106;11.546;2022-12-10T04:47:01;41.10;;;20.08;;
27199;SDS011;14714;48.106;11.546;2022-12-10T04:49:29;41.42;;;19.73;;
27199;SDS011;14714;48.106;11.546;2022-12-10T04:51:56;39.90;;;20.33;;
27199;SDS011;14714;48.106;11.546;2022-12-10T04:54:23;40.45;;;20.90;;
27199;SDS011;14714;48.106;11.546;2022-12-10T04:56:50;36.78;;;19.45;;
27199;SDS011;14714;48.106;11.546;2022-12-10T04:59:17;39.13;;;19.92;;
27199;SDS011;14714;48.106;11.546;2022-12-10T05:01:44;40.53;;;19.52;;
27199;SDS011;14714;48.106;11.546;2022-12-10T05:04:13;41.15;;;20.17;;
27199;SDS011;14714;48.106;11.546;2022-12-10T05:06:42;38.90;;;19.40;;
27199;SDS011;14714;48.106;11.546;2022-12-10T05:09:12;39.40;;;19.88;;
27199;SDS011;14714;48.106;11.546;2022-12-10T05:11:39;40.22;;;20.17;;
27199;SDS011;14714;48.106;11.546;2022-12-10T05:14:06;41.55;;;20.85;;
27199;SDS011;14714;48.106;11.546;2022-12-10T05:16:35;41.22;;;20.33;;
27199;SDS011;14714;48.106;11.546;2022-12-10T05:19:01;45.88;;;21.73;;
27199;SDS011;14714;48.106;11.546;2022-12-10T05:21:29;47.22;;;22.50;;
27199;SDS011;14714;48.106;11.546;2022-12-10T05:24:17;47.60;;;21.83;;
27199;SDS011;14714;48.106;11.546;2022-12-10T05:26:44;48.63;;;23.02;;
27199;SDS011;14714;48.106;11.546;2022-12-10T05:29:12;46.83;;;22.80;;
27199;SDS011;14714;48.106;11.546;2022-12-10T05:31:39;48.60;;;21.88;;
27199;SDS011;14714;48.106;11.546;2022-12-10T05:34:06;47.42;;;22.02;;
27199;SDS011;14714;48.106;11.546;2022-12-10T05:36:34;50.03;;;23.58;;
27199;SDS011;14714;48.106;11.546;2022-12-10T05:39:01;48.17;;;22.65;;
27199;SDS011;14714;48.106;11.546;2022-12-10T05:41:30;49.42;;;23.50;;
27199;SDS011;14714;48.106;11.546;2022-12-10T05:43:59;49.28;;;23.38;;
27199;SDS011;14714;48.106;11.546;2022-12-10T05:46:28;53.55;;;24.63;;
27199;SDS011;14714;48.106;11.546;2022-12-10T05:48:56;51.50;;;24.92;;
27199;SDS011;14714;48.106;11.546;2022-12-10T05:51:24;51.13;;;24.50;;
27199;SDS011;14714;48.106;11.546;2022-12-10T05:53:52;50.47;;;23.67;;
27199;SDS011;14714;48.106;11.546;2022-12-10T05:56:21;51.83;;;24.98;;
27199;SDS011;14714;48.106;11.546;2022-12-10T05:58:50;53.88;;;25.30;;
27199;SDS011;14714;48.106;11.546;2022-12-10T06:01:19;50.90;;;24.92;;
27199;SDS011;14714;48.106;11.546;2022-12-10T06:03:48;51.73;;;24.33;;
27199;SDS011;14714;48.106;11.546;2022-12-10T06:06:20;53.65;;;26.05;;
27199;SDS011;14714;48.106;11.546;2022-12-10T06:08:49;53.17;;;25.13;;
27199;SDS011;14714;48.106;11.546;2022-12-10T06:11:16;56.60;;;25.92;;
27199;SDS011;14714;48.106;11.546;2022-12-10T06:13:43;55.13;;;26.30;;
27199;SDS011;14714;48.106;11.546;2022-12-10T06:16:11;50.05;;;24.45;;
27199;SDS011;14714;48.106;11.546;2022-12-10T06:18:42;52.92;;;26.50;;
27199;SDS011;14714;48.106;11.546;2022-12-10T06:21:09;54.33;;;25.38;;
27199;SDS011;14714;48.106;11.546;2022-12-10T06:26:07;48.75;;;23.92;;
27199;SDS011;14714;48.106;11.546;2022-12-10T06:28:36;53.33;;;25.17;;
27199;SDS011;14714;48.106;11.546;2022-12-10T06:31:03;51.53;;;25.02;;
27199;SDS011;14714;48.106;11.546;2022-12-10T06:33:30;52.53;;;25.98;;
27199;SDS011;14714;48.106;11.546;2022-12-10T06:35:58;50.72;;;26.00;;
27199;SDS011;14714;48.106;11.546;2022-12-10T06:38:24;51.40;;;25.88;;
27199;SDS011;14714;48.106;11.546;2022-12-10T06:40:51;51.75;;;25.70;;
27199;SDS011;14714;48.106;11.546;2022-12-10T06:43:18;52.05;;;25.73;;
27199;SDS011;14714;48.106;11.546;2022-12-10T06:45:45;48.95;;;24.30;;
27199;SDS011;14714;48.106;11.546;2022-12-10T06:48:12;44.88;;;23.45;;
27199;SDS011;14714;48.106;11.546;2022-12-10T06:50:39;49.17;;;24.15;;
27199;SDS011;14714;48.106;11.546;2022-12-10T06:53:07;49.42;;;24.05;;
27199;SDS011;14714;48.106;11.546;2022-12-10T06:55:35;44.45;;;22.92;;
27199;SDS011;14714;48.106;11.546;2022-12-10T06:58:03;42.83;;;21.77;;
27199;SDS011;14714;48.106;11.546;2022-12-10T07:00:30;39.67;;;21.08;;
27199;SDS011;14714;48.106;11.546;2022-12-10T07:02:57;45.88;;;22.38;;
27199;SDS011;14714;48.106;11.546;2022-12-10T07:05:24;44.88;;;22.77;;
27199;SDS011;14714;48.106;11.546;2022-12-10T07:07:50;43.95;;;22.73;;
27199;SDS011;14714;48.106;11.546;2022-12-10T07:10:17;45.00;;;22.33;;
27199;SDS011;14714;48.106;11.546;2022-12-10T07:12:44;47.85;;;23.77;;
27199;SDS011;14714;48.106;11.546;2022-12-10T07:15:11;47.35;;;23.90;;
27199;SDS011;14714;48.106;11.546;2022-12-10T07:17:37;49.10;;;24.63;;
27199;SDS011;14714;48.106;11.546;2022-12-10T07:20:04;49.17;;;24.98;;
27199;SDS011;14714;48.106;11.546;2022-12-10T07:22:32;46.47;;;23.10;;
27199;SDS011;14714;48.106;11.546;2022-12-10T07:24:59;45.92;;;22.75;;
27199;SDS011;14714;48.106;11.546;2022-12-10T07:27:25;48.13;;;24.63;;
27199;SDS011;14714;48.106;11.546;2022-12-10T07:29:52;45.88;;;22.88;;
27199;SDS011;14714;48.106;11.546;2022-12-10T07:32:19;48.00;;;24.50;;
27199;SDS011;14714;48.106;11.546;2022-12-10T07:34:46;48.80;;;24.27;;
27199;SDS011;14714;48.106;11.546;2022-12-10T07:37:12;48.40;;;24.23;;
27199;SDS011;14714;48.106;11.546;2022-12-10T07:39:39;44.50;;;23.73;;
27199;SDS011;14714;48.106;11.546;2022-12-10T07:42:08;45.20;;;22.93;;
27199;SDS011;14714;48.106;11.546;2022-12-10T07:44:35;43.45;;;23.02;;
27199;SDS011;14714;48.106;11.546;2022-12-10T07:47:02;43.35;;;21.50;;
27199;SDS011;14714;48.106;11.546;2022-12-10T07:49:29;43.15;;;21.80;;
27199;SDS011;14714;48.106;11.546;2022-12-10T07:51:56;44.22;;;22.65;;
27199;SDS011;14714;48.106;11.546;2022-12-10T07:54:23;41.47;;;21.73;;
27199;SDS011;14714;48.106;11.546;2022-12-10T07:56:49;41.67;;;21.20;;
27199;SDS011;14714;48.106;11.546;2022-12-10T07:59:16;36.35;;;19.52;;
27199;SDS011;14714;48.106;11.546;2022-12-10T08:01:43;38.60;;;20.42;;
27199;SDS011;14714;48.106;11.546;2022-12-10T08:04:10;37.70;;;20.00;;
27199;SDS011;14714;48.106;11.546;2022-12-10T08:06:36;38.10;;;19.88;;
27199;SDS011;14714;48.106;11.546;2022-12-10T08:09:03;35.72;;;19.33;;
27199;SDS011;14714;48.106;11.546;2022-12-10T08:11:30;36.03;;;18.92;;
27199;SDS011;14714;48.106;11.546;2022-12-10T08:13:58;32.67;;;17.77;;
27199;SDS011;14714;48.106;11.546;2022-12-10T08:16:26;34.03;;;18.50;;
27199;SDS011;14714;48.106;11.546;2022-12-10T08:18:55;30.30;;;16.57;;
27199;SDS011;14714;48.106;11.546;2022-12-10T08:21:23;32.53;;;17.67;;
27199;SDS011;14714;48.106;11.546;2022-12-10T08:23:52;36.20;;;18.90;;
27199;SDS011;14714;48.106;11.546;2022-12-10T08:26:21;33.28;;;17.88;;
27199;SDS011;14714;48.106;11.546;2022-12-10T08:28:50;37.85;;;19.38;;
27199;SDS011;14714;48.106;11.546;2022-12-10T08:31:19;33.58;;;17.98;;
27199;SDS011;14714;48.106;11.546;2022-12-10T08:33:46;33.00;;;17.98;;
27199;SDS011;14714;48.106;11.546;2022-12-10T08:36:14;29.48;;;16.27;;
27199;SDS011;14714;48.106;11.546;2022-12-10T08:38:43;30.35;;;16.33;;
27199;SDS011;14714;48.106;11.546;2022-12-10T08:41:12;26.45;;;15.82;;
27199;SDS011;14714;48.106;11.546;2022-12-10T08:43:45;25.90;;;15.20;;
27199;SDS011;14714;48.106;11.546;2022-12-10T08:46:13;25.20;;;14.85;;
27199;SDS011;14714;48.106;11.546;2022-12-10T08:48:40;27.88;;;15.23;;
27199;SDS011;14714;48.106;11.546;2022-12-10T08:51:08;26.23;;;15.38;;
27199;SDS011;14714;48.106;11.546;2022-12-10T08:53:39;28.67;;;16.60;;
27199;SDS011;14714;48.106;11.546;2022-12-10T08:56:06;29.38;;;16.60;;
27199;SDS011;14714;48.106;11.546;2022-12-10T08:58:33;30.90;;;16.52;;
27199;SDS011;14714;48.106;11.546;2022-12-10T09:01:00;29.75;;;16.70;;
27199;SDS011;14714;48.106;11.546;2022-12-10T09:03:41;31.52;;;17.38;;
27199;SDS011;14714;48.106;11.546;2022-12-10T09:06:09;32.03;;;18.23;;
27199;SDS011;14714;48.106;11.546;2022-12-10T09:08:38;35.03;;;19.10;;
27199;SDS011;14714;48.106;11.546;2022-12-10T09:11:06;34.58;;;19.58;;
27199;SDS011;14714;48.106;11.546;2022-12-10T09:13:35;38.70;;;19.88;;
27199;SDS011;14714;48.106;11.546;2022-12-10T09:16:02;38.75;;;19.73;;
27199;SDS011;14714;48.106;11.546;2022-12-10T09:18:29;35.42;;;19.05;;
27199;SDS011;14714;48.106;11.546;2022-12-10T09:20:56;35.72;;;19.95;;
27199;SDS011;14714;48.106;11.546;2022-12-10T09:23:23;38.97;;;20.48;;
27199;SDS011;14714;48.106;11.546;2022-12-10T09:25:50;37.08;;;18.80;;
27199;SDS011;14714;48.106;11.546;2022-12-10T09:28:17;35.75;;;19.13;;
27199;SDS011;14714;48.106;11.546;2022-12-10T09:30:43;36.75;;;19.05;;
27199;SDS011;14714;48.106;11.546;2022-12-10T09:33:10;33.10;;;19.02;;
27199;SDS011;14714;48.106;11.546;2022-12-10T09:35:40;39.30;;;20.17;;
27199;SDS011;14714;48.106;11.546;2022-12-10T09:38:07;36.17;;;19.67;;
27199;SDS011;14714;48.106;11.546;2022-12-10T09:40:58;35.50;;;18.33;;
27199;SDS011;14714;48.106;11.546;2022-12-10T09:51:34;34.40;;;17.35;;
27199;SDS011;14714;48.106;11.546;2022-12-10T09:54:22;36.13;;;18.75;;
27199;SDS011;14714;48.106;11.546;2022-12-10T09:56:57;35.45;;;18.85;;
27199;SDS011;14714;48.106;11.546;2022-12-10T09:59:28;32.88;;;17.63;;
27199;SDS011;14714;48.106;11.546;2022-12-10T10:02:00;34.85;;;18.42;;
27199;SDS011;14714;48.106;11.546;2022-12-10T10:04:48;40.47;;;20.10;;
27199;SDS011;14714;48.106;11.546;2022-12-10T10:07:20;36.22;;;19.42;;
27199;SDS011;14714;48.106;11.546;2022-12-10T10:09:55;43.35;;;20.95;;
27199;SDS011;14714;48.106;11.546;2022-12-10T10:15:34;41.75;;;20.00;;
27199;SDS011;14714;48.106;11.546;2022-12-10T10:20:56;39.92;;;19.98;;
27199;SDS011;14714;48.106;11.546;2022-12-10T10:25:51;36.90;;;19.42;;
27199;SDS011;14714;48.106;11.546;2022-12-10T10:28:20;40.20;;;21.38;;
27199;SDS011;14714;48.106;11.546;2022-12-10T10:30:48;41.47;;;20.13;;
27199;SDS011;14714;48.106;11.546;2022-12-10T10:33:17;38.60;;;20.25;;
27199;SDS011;14714;48.106;11.546;2022-12-10T10:35:48;45.22;;;21.85;;
27199;SDS011;14714;48.106;11.546;2022-12-10T10:38:21;46.70;;;23.33;;
27199;SDS011;14714;48.106;11.546;2022-12-10T10:40:50;45.65;;;22.85;;
27199;SDS011;14714;48.106;11.546;2022-12-10T10:43:23;45.05;;;22.40;;
27199;SDS011;14714;48.106;11.546;2022-12-10T10:46:01;46.47;;;21.13;;
27199;SDS011;14714;48.106;11.546;2022-12-10T10:48:39;45.08;;;22.20;;
27199;SDS011;14714;48.106;11.546;2022-12-10T10:56:17;45.00;;;21.98;;
27199;SDS011;14714;48.106;11.546;2022-12-10T11:01:43;41.90;;;21.30;;
27199;SDS011;14714;48.106;11.546;2022-12-10T11:04:11;42.33;;;21.38;;
27199;SDS011;14714;48.106;11.546;2022-12-10T11:06:40;39.17;;;20.20;;
27199;SDS011;14714;48.106;11.546;2022-12-10T11:09:13;38.65;;;19.55;;
27199;SDS011;14714;48.106;11.546;2022-12-10T11:11:51;43.08;;;21.00;;
27199;SDS011;14714;48.106;11.546;2022-12-10T11:14:24;39.53;;;20.33;;
27199;SDS011;14714;48.106;11.546;2022-12-10T11:17:03;44.05;;;21.17;;
27199;SDS011;14714;48.106;11.546;2022-12-10T11:19:57;39.75;;;20.25;;
27199;SDS011;14714;48.106;11.546;2022-12-10T11:22:31;38.65;;;20.08;;
27199;SDS011;14714;48.106;11.546;2022-12-10T11:24:59;37.10;;;19.45;;
27199;SDS011;14714;48.106;11.546;2022-12-10T11:30:32;42.10;;;20.20;;
27199;SDS011;14714;48.106;11.546;2022-12-10T11:33:21;36.90;;;19.27;;
27199;SDS011;14714;48.106;11.546;2022-12-10T11:38:35;37.47;;;19.65;;
27199;SDS011;14714;48.106;11.546;2022-12-10T11:44:08;38.28;;;20.60;;
27199;SDS011;14714;48.106;11.546;2022-12-10T11:55:38;38.67;;;20.77;;
27199;SDS011;14714;48.106;11.546;2022-12-10T12:01:00;40.35;;;19.98;;
27199;SDS011;14714;48.106;11.546;2022-12-10T12:06:24;38.85;;;20.67;;
27199;SDS011;14714;48.106;11.546;2022-12-10T12:09:24;38.35;;;20.60;;
27199;SDS011;14714;48.106;11.546;2022-12-10T12:12:16;37.38;;;20.30;;
27199;SDS011;14714;48.106;11.546;2022-12-10T12:15:03;38.35;;;20.30;;
27199;SDS011;14714;48.106;11.546;2022-12-10T12:18:06;39.40;;;21.05;;
27199;SDS011;14714;48.106;11.546;2022-12-10T12:20:53;38.22;;;20.73;;
27199;SDS011;14714;48.106;11.546;2022-12-10T12:23:26;41.22;;;20.55;;
27199;SDS011;14714;48.106;11.546;2022-12-10T12:26:01;39.17;;;20.27;;
27199;SDS011;14714;48.106;11.546;2022-12-10T12:28:33;42.58;;;22.08;;
27199;SDS011;14714;48.106;11.546;2022-12-10T12:31:22;40.85;;;20.67;;
27199;SDS011;14714;48.106;11.546;2022-12-10T12:33:59;39.90;;;21.45;;
27199;SDS011;14714;48.106;11.546;2022-12-10T12:36:32;40.33;;;20.85;;
27199;SDS011;14714;48.106;11.546;2022-12-10T12:39:02;42.88;;;22.17;;
27199;SDS011;14714;48.106;11.546;2022-12-10T12:41:58;42.60;;;22.08;;
27199;SDS011;14714;48.106;11.546;2022-12-10T12:50:11;38.22;;;21.13;;
27199;SDS011;14714;48.106;11.546;2022-12-10T12:52:44;42.53;;;21.25;;
27199;SDS011;14714;48.106;11.546;2022-12-10T13:01:10;43.20;;;21.88;;
27199;SDS011;14714;48.106;11.546;2022-12-10T13:03:44;46.53;;;22.27;;
27199;SDS011;14714;48.106;11.546;2022-12-10T13:06:16;41.13;;;21.80;;
27199;SDS011;14714;48.106;11.546;2022-12-10T13:19:33;43.15;;;23.08;;
27199;SDS011;14714;48.106;11.546;2022-12-10T13:37:36;44.88;;;23.08;;
27199;SDS011;14714;48.106;11.546;2022-12-10T13:49:16;44.33;;;23.77;;
27199;SDS011;14714;48.106;11.546;2022-12-10T13:51:55;43.97;;;23.40;;
27199;SDS011;14714;48.106;11.546;2022-12-10T13:57:30;44.42;;;22.48;;
27199;SDS011;14714;48.106;11.546;2022-12-10T14:00:21;41.85;;;22.38;;
27199;SDS011;14714;48.106;11.546;2022-12-10T14:08:29;39.45;;;21.98;;
27199;SDS011;14714;48.106;11.546;2022-12-10T14:10:59;44.22;;;23.05;;
27199;SDS011;14714;48.106;11.546;2022-12-10T14:13:38;43.28;;;23.13;;
27199;SDS011;14714;48.106;11.546;2022-12-10T14:16:13;43.03;;;22.88;;
27199;SDS011;14714;48.106;11.546;2022-12-10T14:18:41;44.72;;;23.58;;
27199;SDS011;14714;48.106;11.546;2022-12-10T14:21:10;40.58;;;22.02;;
27199;SDS011;14714;48.106;11.546;2022-12-10T14:23:47;39.55;;;21.38;;
27199;SDS011;14714;48.106;11.546;2022-12-10T14:26:32;41.85;;;22.40;;
27199;SDS011;14714;48.106;11.546;2022-12-10T14:29:12;43.25;;;23.10;;
27199;SDS011;14714;48.106;11.546;2022-12-10T14:31:53;42.90;;;22.58;;
27199;SDS011;14714;48.106;11.546;2022-12-10T14:34:21;43.17;;;22.85;;
27199;SDS011;14714;48.106;11.546;2022-12-10T14:36:58;37.90;;;20.30;;
27199;SDS011;14714;48.106;11.546;2022-12-10T14:39:30;36.60;;;19.42;;
27199;SDS011;14714;48.106;11.546;2022-12-10T14:42:00;44.08;;;23.77;;
27199;SDS011;14714;48.106;11.546;2022-12-10T14:47:12;41.10;;;21.25;;
27199;SDS011;14714;48.106;11.546;2022-12-10T14:49:45;38.28;;;21.25;;
27199;SDS011;14714;48.106;11.546;2022-12-10T14:52:14;41.90;;;23.08;;
27199;SDS011;14714;48.106;11.546;2022-12-10T14:54:58;37.83;;;21.10;;
27199;SDS011;14714;48.106;11.546;2022-12-10T14:57:30;40.92;;;21.52;;
27199;SDS011;14714;48.106;11.546;2022-12-10T15:02:40;35.90;;;19.70;;
27199;SDS011;14714;48.106;11.546;2022-12-10T15:05:12;38.25;;;20.52;;
27199;SDS011;14714;48.106;11.546;2022-12-10T15:07:42;40.63;;;22.67;;
27199;SDS011;14714;48.106;11.546;2022-12-10T15:10:43;39.40;;;22.02;;
27199;SDS011;14714;48.106;11.546;2022-12-10T15:13:18;40.08;;;22.42;;
27199;SDS011;14714;48.106;11.546;2022-12-10T15:15:48;41.58;;;22.58;;
27199;SDS011;14714;48.106;11.546;2022-12-10T15:18:27;45.35;;;23.33;;
27199;SDS011;14714;48.106;11.546;2022-12-10T15:21:19;40.42;;;21.98;;
27199;SDS011;14714;48.106;11.546;2022-12-10T15:23:47;40.10;;;22.25;;
27199;SDS011;14714;48.106;11.546;2022-12-10T15:26:27;39.78;;;22.17;;
27199;SDS011;14714;48.106;11.546;2022-12-10T15:31:54;39.97;;;21.40;;
27199;SDS011;14714;48.106;11.546;2022-12-10T15:34:42;43.63;;;23.70;;
27199;SDS011;14714;48.106;11.546;2022-12-10T15:37:14;41.60;;;22.98;;
27199;SDS011;14714;48.106;11.546;2022-12-10T15:39:56;37.33;;;21.15;;
27199;SDS011;14714;48.106;11.546;2022-12-10T15:42:41;36.55;;;21.35;;
27199;SDS011;14714;48.106;11.546;2022-12-10T15:47:43;37.50;;;21.23;;
27199;SDS011;14714;48.106;11.546;2022-12-10T15:50:10;34.97;;;19.95;;
27199;SDS011;14714;48.106;11.546;2022-12-10T15:52:37;37.63;;;19.90;;
27199;SDS011;14714;48.106;11.546;2022-12-10T15:55:04;36.70;;;20.38;;
27199;SDS011;14714;48.106;11.546;2022-12-10T15:57:33;35.60;;;20.20;;
27199;SDS011;14714;48.106;11.546;2022-12-10T16:00:06;36.88;;;20.38;;
27199;SDS011;14714;48.106;11.546;2022-12-10T16:02:43;35.65;;;21.15;;
27199;SDS011;14714;48.106;11.546;2022-12-10T16:05:14;35.08;;;19.73;;
27199;SDS011;14714;48.106;11.546;2022-12-10T16:07:41;36.97;;;20.67;;
27199;SDS011;14714;48.106;11.546;2022-12-10T16:10:10;33.45;;;19.05;;
27199;SDS011;14714;48.106;11.546;2022-12-10T16:12:38;37.30;;;19.70;;
27199;SDS011;14714;48.106;11.546;2022-12-10T16:15:07;32.92;;;18.35;;
27199;SDS011;14714;48.106;11.546;2022-12-10T16:17:40;31.52;;;18.25;;
27199;SDS011;14714;48.106;11.546;2022-12-10T16:22:55;34.15;;;18.65;;
27199;SDS011;14714;48.106;11.546;2022-12-10T16:25:23;31.55;;;17.83;;
27199;SDS011;14714;48.106;11.546;2022-12-10T16:27:52;31.67;;;18.38;;
27199;SDS011;14714;48.106;11.546;2022-12-10T16:30:20;38.22;;;18.67;;
27199;SDS011;14714;48.106;11.546;2022-12-10T16:33:01;34.53;;;18.60;;
27199;SDS011;14714;48.106;11.546;2022-12-10T16:35:29;36.15;;;18.83;;
27199;SDS011;14714;48.106;11.546;2022-12-10T16:37:55;35.83;;;19.40;;
27199;SDS011;14714;48.106;11.546;2022-12-10T16:40:25;37.80;;;19.23;;
27199;SDS011;14714;48.106;11.546;2022-12-10T16:42:53;36.97;;;20.40;;
27199;SDS011;14714;48.106;11.546;2022-12-10T16:45:24;38.83;;;19.75;;
27199;SDS011;14714;48.106;11.546;2022-12-10T16:47:55;38.58;;;20.92;;
27199;SDS011;14714;48.106;11.546;2022-12-10T16:50:22;36.40;;;19.90;;
27199;SDS011;14714;48.106;11.546;2022-12-10T16:52:50;37.65;;;20.13;;
27199;SDS011;14714;48.106;11.546;2022-12-10T16:55:19;36.17;;;19.80;;
27199;SDS011;14714;48.106;11.546;2022-12-10T16:57:48;40.78;;;20.10;;
27199;SDS011;14714;48.106;11.546;2022-12-10T17:00:16;36.35;;;19.83;;
27199;SDS011;14714;48.106;11.546;2022-12-10T17:02:47;36.10;;;20.05;;